Estación meteorológica de Mataró (Maresme, Maresme)

Consulta los datos en tiempo real de la estación meteorológica de Mataró





Hora UTC 11:15
Temperatura 17.4 ºC
Suelo 15 cm 30.0 ºC
Humedad 64.4 %
Presión 1013.4 hPa
Pluja 0.0 mm
Velocidad viento 12.1 km/h
Dirección viento SSE
Radiación solar 759.7 W/m²

Webcam

Datos diarios 2026-05-07



Hora UTC (invierno +1h; verano +2h)
Temperatura (ºC) Humedad (%) Presión (hPa) Velocidad viento (km/h) Precipitación (mm) Radiación solar (W/m²)
Hora UTC Aire Suelo 15 cm Humedad Presión Vel. Dir. Vel. Max Dir. Intent. máx 5 min. Rad. Sol.
00:05 13.3 12.0 88.6 1013.2 6.3 NNE 6.3 NNE 0.0 0.1
00:10 13.1 12.0 89.0 1013.2 6.9 NNE 9.5 N 0.0 0.1
00:15 13.1 11.9 89.1 1013.1 6.8 N 9.2 N 0.0 0.1
00:20 13.1 11.9 88.8 1013.1 7.7 N 9.2 N 0.0 0.1
00:25 13.1 11.9 88.9 1013.0 9.2 N 10.9 N 0.0 0.1
00:30 13.1 11.9 88.9 1013.0 8.7 N 12.4 0.0 0.1
00:35 12.9 11.8 89.3 1013.0 7.8 N 9.9 N 0.0 0.1
00:40 12.9 11.8 89.2 1013.0 8.7 N 9.9 N 0.0 0.1
00:45 12.9 11.8 88.7 1013.0 8.8 N 10.2 N 0.0 0.1
00:50 12.9 11.7 88.6 1012.9 7.9 N 9.5 N 0.0 0.1
00:55 12.8 11.7 88.7 1012.9 7.8 N 9.2 N 0.0 0.1
01:00 12.7 11.6 88.5 1012.9 5.8 NNE 8.5 N 0.0 0.1
01:05 12.8 11.6 87.5 1012.8 5.0 NNE 7.1 NNE 0.0 0.1
01:10 12.8 11.5 87.2 1012.8 5.0 NNE 6.7 N 0.0 0.1
01:15 12.8 11.5 87.2 1012.7 6.9 NNE 9.2 N 0.0 0.1
01:20 12.8 11.5 86.8 1012.8 6.5 NNE 8.5 NNE 0.0 0.1
01:25 12.8 11.5 86.2 1012.7 5.0 NNE 7.4 NE 0.0 0.1
01:30 12.9 11.5 85.5 1012.7 4.5 NE 6.4 NE 0.0 0.1
01:35 13.0 11.4 84.8 1012.7 4.4 NNE 6.4 NNE 0.0 0.1
01:40 13.0 11.4 84.6 1012.7 3.7 NNE 6.4 NE 0.0 0.1
01:45 13.0 11.3 84.7 1012.8 3.2 NNE 6.4 NNE 0.0 0.1
01:50 13.0 11.3 85.0 1012.8 5.2 NNE 7.8 NNE 0.0 0.1
01:55 12.9 11.3 85.1 1012.7 6.4 NNE 9.5 NE 0.0 0.1
02:00 12.9 11.3 86.0 1012.7 4.9 NNE 7.8 NNE 0.0 0.1
02:05 12.9 11.4 86.2 1012.6 6.8 NNE 9.2 N 0.0 0.1
02:10 12.8 11.4 86.9 1012.6 7.3 NNE 8.8 NNE 0.0 0.1
02:15 12.9 11.5 87.0 1012.5 7.4 NNE 8.8 NNE 0.0 0.1
02:20 12.9 11.5 87.2 1012.5 7.2 NNE 9.2 NNE 0.0 0.1
02:25 12.9 11.5 86.9 1012.6 8.1 NNE 10.9 NNE 0.0 0.1
02:30 12.8 11.5 86.9 1012.6 9.0 NNE 11.3 N 0.0 0.1
02:35 12.7 11.5 87.3 1012.6 8.4 NNE 10.6 N 0.0 0.1
02:40 12.8 11.5 86.6 1012.5 8.4 NNE 10.2 N 0.0 0.1
02:45 12.8 11.6 86.6 1012.5 8.5 NNE 9.9 NNE 0.0 0.1
02:50 12.8 11.6 86.5 1012.6 6.8 NNE 8.5 NNE 0.0 0.1
02:55 12.8 11.6 86.3 1012.6 5.3 NNE 6.4 NNE 0.0 0.1
03:00 12.8 11.5 86.5 1012.6 4.4 NNE 5.6 NNE 0.0 0.1
03:05 12.8 11.4 86.8 1012.6 3.0 NNE 4.2 NNE 0.0 0.1
03:10 12.6 11.2 87.0 1012.6 1.5 NE 3.5 E 0.0 0.1
03:15 12.5 10.9 87.9 1012.6 2.7 ENE 3.9 ENE 0.0 0.1
03:20 12.5 10.7 88.7 1012.6 2.4 NE 3.5 E 0.0 0.1
03:25 12.5 10.6 88.7 1012.6 3.3 NE 4.2 NE 0.0 0.1
03:30 12.7 10.6 87.9 1012.6 4.1 NNE 5.6 NE 0.0 0.1
03:35 12.8 10.7 87.1 1012.6 4.4 NNE 5.3 NNE 0.0 0.1
03:40 12.8 10.9 86.8 1012.5 4.4 NNE 5.6 NE 0.0 0.1
03:45 12.8 11.0 86.8 1012.4 5.4 NNE 6.7 NNE 0.0 0.1
03:50 12.7 11.1 87.4 1012.4 4.5 NNE 6.4 NNE 0.0 0.1
03:55 12.7 11.2 87.1 1012.4 5.0 NNE 6.7 NNE 0.0 0.1
04:00 12.7 11.2 86.7 1012.5 5.3 NNE 6.7 NNE 0.0 0.1
04:05 12.8 11.2 86.3 1012.5 5.1 NNE 7.8 NNE 0.0 0.1
04:10 12.8 11.3 86.2 1012.4 5.1 NNE 8.5 NNE 0.0 0.1
04:15 12.7 11.3 86.3 1012.4 5.2 NNE 7.4 NE 0.0 0.1
04:20 12.7 11.2 86.1 1012.4 6.0 NNE 8.1 N 0.0 0.4
04:25 12.7 11.2 86.5 1012.4 4.8 NNE 8.1 NNE 0.0 0.8
04:30 12.7 11.2 86.2 1012.5 4.8 NNE 6.7 N 0.0 1.6
04:35 12.7 11.2 85.2 1012.5 4.3 NNE 7.1 ENE 0.0 2.8
04:40 12.8 11.1 84.7 1012.5 2.4 NNE 3.9 NNE 0.0 4.5
04:45 12.6 11.1 85.1 1012.5 3.2 NNE 5.6 N 0.0 6.6
04:50 12.7 11.0 85.0 1012.5 3.9 NNE 7.1 NNE 0.0 8.9
04:55 12.7 11.1 85.4 1012.6 2.6 NNE 5.3 N 0.0 11.6
05:00 12.6 11.1 85.4 1012.6 3.8 NNE 6.4 NE 0.0 13.8
05:05 12.6 11.2 85.4 1012.6 3.6 NNE 7.1 NNE 0.0 16.4
05:10 12.7 11.3 85.1 1012.6 3.1 N 5.6 N 0.0 18.6
05:15 12.7 11.3 85.8 1012.6 3.4 NNE 7.1 NNE 0.0 21.1
05:20 12.7 11.4 85.8 1012.7 2.0 NNE 6.0 NNE 0.0 23.4
05:25 12.7 11.5 86.2 1012.8 1.8 N 4.2 NE 0.0 25.9
05:30 12.7 11.5 86.5 1012.9 0.8 N 2.5 NNW 0.0 28.6
05:35 12.8 11.5 86.2 1013.0 0.2 NW 1.8 N 0.0 102.3
05:40 13.0 12.1 85.4 1013.0 0.8 N 3.5 ENE 0.0 125.1
05:45 13.2 13.4 84.1 1012.9 0.6 NE 2.8 SE 0.0 138.8
05:50 13.6 14.9 83.7 1013.0 0.8 SSE 3.2 SSW 0.0 150.9
05:55 13.8 16.3 83.0 1013.0 0.8 ESE 3.5 ENE 0.0 169.0
06:00 14.0 17.7 84.2 1013.0 1.3 WNW 6.0 NNE 0.0 183.2
06:05 14.3 18.8 83.5 1013.1 1.5 ESE 5.6 SE 0.0 196.6
06:10 14.7 19.5 83.1 1013.2 1.5 ESE 4.9 ESE 0.0 211.8
06:15 15.0 20.2 81.9 1013.2 4.0 SE 8.1 ESE 0.0 226.5
06:20 15.3 20.7 81.4 1013.2 3.5 SE 8.5 SSE 0.0 240.2
06:25 15.4 21.1 80.8 1013.2 5.1 SE 9.2 SE 0.0 253.8
06:30 15.6 21.3 79.7 1013.3 6.0 SE 13.1 SE 0.0 264.4
06:35 15.7 21.4 79.7 1013.4 4.4 SE 11.3 SSE 0.0 280.1
06:40 15.7 21.5 79.5 1013.5 6.4 SE 14.5 SE 0.0 319.7
06:45 15.9 21.5 79.0 1013.5 6.2 SE 16.6 ESE 0.0 323.9
06:50 16.0 21.5 77.3 1013.5 6.4 ESE 13.1 SE 0.0 334.1
06:55 16.0 21.6 75.7 1013.6 10.3 SE 19.1 SE 0.0 350.7
07:00 15.8 21.7 74.3 1013.6 10.5 SE 15.2 ESE 0.0 363.3
07:05 15.9 22.0 75.2 1013.7 10.0 SE 17.3 SE 0.0 391.8
07:10 16.0 22.2 72.7 1013.8 7.4 SE 14.1 ESE 0.0 283.9
07:15 16.0 22.2 73.3 1013.9 8.0 SE 16.9 S 0.0 368.2
07:20 16.0 22.1 72.2 1013.9 7.9 ESE 17.3 SE 0.0 298.3
07:25 16.1 22.2 72.2 1013.9 10.2 SE 20.1 SE 0.0 394.2
07:30 16.1 22.5 71.3 1013.9 9.4 SE 15.5 SE 0.0 354.6
07:35 16.0 22.3 72.3 1014.0 9.6 ESE 15.9 SE 0.0 366.2
07:40 16.2 22.3 72.5 1013.9 11.1 SE 16.9 SE 0.0 356.4
07:45 16.1 22.2 70.9 1013.9 8.5 SE 14.5 SE 0.0 489.2
07:50 16.5 23.1 71.0 1013.9 7.6 ESE 13.8 SE 0.0 534.5
07:55 16.6 23.9 70.7 1013.9 6.6 SE 11.3 ESE 0.0 402.5
08:00 16.6 24.1 70.1 1013.9 6.0 SE 10.2 SSE 0.0 338.5
08:05 16.6 24.1 70.9 1013.8 8.8 SE 16.6 SE 0.0 569.7
08:10 16.8 24.5 69.0 1013.8 11.0 SSE 18.4 SSE 0.0 332.4
08:15 16.5 24.3 69.9 1013.9 5.6 SSE 10.2 SE 0.0 474.0
08:20 16.6 24.3 69.3 1013.8 9.0 SE 13.8 SE 0.0 451.3
08:25 16.8 24.7 69.8 1013.8 7.0 SE 13.8 SE 0.0 632.5
08:30 16.9 25.5 67.4 1013.8 9.3 SSE 15.2 SSE 0.0 448.4
08:35 16.9 25.7 68.8 1013.8 7.2 SE 15.2 SE 0.0 578.6
08:40 17.1 26.3 67.5 1013.9 11.4 SE 17.6 SE 0.0 542.1
08:45 17.1 26.6 67.8 1013.8 9.0 SE 14.1 SSE 0.0 668.6
08:50 17.3 27.2 67.2 1013.8 8.7 ESE 17.3 SE 0.0 688.3
08:55 17.3 27.8 66.8 1013.7 10.4 SSE 15.5 SSE 0.0 692.4
09:00 17.3 28.0 66.5 1013.8 10.9 SE 16.9 SE 0.0 709.5
09:05 17.3 28.1 66.6 1013.9 12.0 SE 19.4 SSE 0.0 515.9
09:10 17.1 27.7 67.1 1014.0 9.4 SE 18.0 SE 0.0 652.3
09:15 17.1 27.7 67.1 1014.1 9.1 SE 15.9 ESE 0.0 762.7
09:20 17.3 28.2 65.9 1014.1 10.7 SE 16.6 SSE 0.0 644.5
09:25 17.4 28.4 65.6 1014.1 8.8 SE 15.5 ESE 0.0 737.5
09:30 17.4 28.5 66.2 1014.1 10.0 SE 18.4 SE 0.0 590.7
09:35 17.0 28.1 67.3 1014.1 9.2 SE 16.9 ESE 0.0 733.4
09:40 17.2 28.3 68.4 1014.0 9.0 SE 15.5 SE 0.0 745.1
09:45 17.3 28.7 66.8 1014.0 7.1 SSE 15.9 SE 0.0 772.3
09:50 17.4 29.3 67.0 1014.0 8.5 SE 15.5 SE 0.0 806.0
09:55 17.6 29.9 65.5 1014.0 13.1 SSE 20.1 SSE 0.0 780.2
10:00 17.6 30.0 65.0 1014.0 12.7 SSE 18.4 SE 0.0 790.2
10:05 17.6 30.1 65.7 1014.0 11.4 SSE 17.6 S 0.0 816.0
10:10 17.6 30.1 65.8 1013.9 13.4 SE 20.8 SE 0.0 734.7
10:15 17.3 29.5 67.6 1013.9 9.3 SE 16.9 SE 0.0 781.5
10:20 17.5 29.3 67.2 1013.9 11.1 ESE 19.4 SE 0.0 837.0
10:25 17.4 29.4 68.4 1014.0 11.3 SSE 18.0 SE 0.0 745.8
10:30 17.3 29.4 68.0 1014.0 12.7 SE 21.5 SE 0.0 815.0
10:35 17.2 29.2 69.0 1014.0 12.4 SE 20.8 SSE 0.0 711.9
10:40 17.2 28.7 70.3 1013.9 12.8 SE 20.1 SE 0.0 756.4
10:45 17.3 28.5 69.1 1013.8 10.7 SE 20.8 ESE 0.0 758.3
10:50 17.3 28.4 68.9 1013.7 12.7 SE 20.5 ESE 0.0 705.3
10:55 17.3 28.4 68.1 1013.7 9.4 SE 15.5 SE 0.0 714.3
11:00 17.6 28.7 66.5 1013.6 9.8 SE 20.1 SE 0.0 720.2
11:05 17.6 29.0 66.1 1013.6 10.5 SE 20.8 ESE 0.0 838.0
11:10 17.6 29.6 65.1 1013.5 10.4 SE 18.4 SSE 0.0 793.4
11:15 17.4 30.0 64.4 1013.4 12.1 SSE 18.0 SE 0.0 759.7
Máxima 17.6 30.1 89.3 1014.1 13.4 SE 21.5 SE 0.0 838.0
Mínima 12.5 10.6 64.4 1012.4
Total 0.0